createdAt,value
2022-09-16T00:02:02.458Z,22.06
2022-09-16T00:04:32.479Z,22.13
2022-09-16T00:07:02.805Z,22.17
2022-09-16T00:09:32.950Z,22.22
2022-09-16T00:12:03.718Z,22.30
2022-09-16T00:14:33.981Z,22.37
2022-09-16T00:17:04.311Z,22.42
2022-09-16T00:19:34.689Z,22.49
2022-09-16T00:22:04.923Z,22.55
2022-09-16T00:24:36.002Z,22.62
2022-09-16T00:27:06.644Z,22.65
2022-09-16T00:29:37.229Z,22.71
2022-09-16T00:32:07.726Z,22.77
2022-09-16T00:34:37.877Z,22.82
2022-09-16T00:37:12.191Z,22.89
2022-09-16T00:39:42.223Z,22.94
2022-09-16T00:42:13.721Z,23.00
2022-09-16T00:44:53.372Z,23.10
2022-09-16T00:47:35.404Z,23.18
2022-09-16T00:50:12.563Z,23.24
2022-09-16T00:52:44.408Z,23.33
2022-09-16T00:55:22.647Z,23.41
2022-09-16T00:57:56.575Z,23.51
2022-09-16T01:00:26.851Z,23.57
2022-09-16T01:02:56.378Z,23.65
2022-09-16T01:05:28.184Z,23.73
2022-09-16T01:07:58.308Z,23.82
2022-09-16T01:10:30.236Z,23.88
2022-09-16T01:13:12.752Z,23.93
2022-09-16T01:15:51.841Z,24.03
2022-09-16T01:18:44.910Z,24.12
2022-09-16T01:21:24.878Z,24.20
2022-09-16T01:24:22.581Z,24.29
2022-09-16T01:27:21.509Z,24.39
2022-09-16T01:30:18.346Z,24.49
2022-09-16T01:32:56.252Z,24.56
2022-09-16T01:35:41.470Z,24.65
2022-09-16T01:38:21.164Z,24.72
2022-09-16T01:40:57.337Z,24.80
2022-09-16T01:43:37.416Z,24.86
2022-09-16T01:46:48.106Z,24.94
2022-09-16T01:49:50.593Z,25.03
2022-09-16T01:52:46.072Z,25.11
2022-09-16T01:55:30.671Z,25.18
2022-09-16T01:58:24.801Z,25.25
2022-09-16T02:01:01.347Z,25.29
2022-09-16T02:03:38.822Z,25.39
2022-09-16T02:06:14.202Z,25.46
2022-09-16T02:09:03.790Z,25.55
2022-09-16T02:11:34.992Z,25.61
2022-09-16T02:14:19.783Z,25.69
2022-09-16T02:16:59.563Z,25.77
2022-09-16T02:19:38.761Z,25.83
2022-09-16T02:22:15.087Z,25.91
2022-09-16T02:24:48.515Z,25.98
2022-09-16T02:27:21.900Z,26.01
2022-09-16T02:30:05.524Z,26.07
2022-09-16T02:32:40.738Z,26.14
2022-09-16T02:35:15.158Z,26.21
2022-09-16T02:37:59.911Z,26.26
2022-09-16T02:40:36.699Z,26.30
2022-09-16T02:43:08.023Z,26.35
2022-09-16T02:45:56.668Z,26.40
2022-09-16T02:48:58.000Z,26.47
2022-09-16T02:51:59.552Z,26.52
2022-09-16T02:54:48.708Z,26.59
2022-09-16T02:57:19.005Z,26.60
2022-09-16T02:59:49.164Z,26.67
2022-09-16T03:02:20.324Z,26.70
2022-09-16T03:04:51.296Z,26.73
2022-09-16T03:07:21.659Z,26.78
2022-09-16T03:09:53.264Z,26.86
2022-09-16T03:12:41.568Z,26.88
2022-09-16T03:15:59.043Z,26.94
2022-09-16T03:18:53.715Z,27.00
2022-09-16T03:21:32.258Z,27.06
2022-09-16T03:24:20.675Z,27.09
2022-09-16T03:27:11.213Z,27.15
2022-09-16T03:29:59.284Z,27.19
2022-09-16T03:32:44.961Z,27.22
2022-09-16T03:35:24.201Z,27.26
2022-09-16T03:37:57.045Z,27.30
2022-09-16T03:40:28.094Z,27.33
2022-09-16T03:43:00.197Z,27.36
2022-09-16T03:45:30.269Z,27.42
2022-09-16T03:48:00.274Z,27.45
2022-09-16T03:50:30.355Z,27.48
2022-09-16T03:53:00.247Z,27.49
2022-09-16T03:55:29.590Z,27.51
2022-09-16T03:57:59.559Z,27.53
2022-09-16T04:00:30.476Z,27.54
2022-09-16T04:03:02.168Z,27.55
2022-09-16T04:05:32.355Z,27.57
2022-09-16T04:08:03.429Z,27.58
2022-09-16T04:10:36.118Z,27.61
2022-09-16T04:13:06.638Z,27.64
2022-09-16T04:15:40.328Z,27.65
2022-09-16T04:18:11.028Z,27.67
2022-09-16T04:20:41.298Z,27.70
2022-09-16T04:23:12.912Z,27.67
2022-09-16T04:25:43.085Z,27.67
2022-09-16T04:28:13.613Z,27.68
2022-09-16T04:30:44.027Z,27.67
2022-09-16T04:33:14.305Z,27.69
2022-09-16T04:35:44.467Z,27.72
2022-09-16T04:38:14.724Z,27.76
2022-09-16T04:40:45.042Z,27.80
2022-09-16T04:43:16.714Z,27.84
2022-09-16T04:45:47.445Z,27.86
2022-09-16T04:48:20.692Z,27.88
2022-09-16T04:50:51.277Z,27.90
2022-09-16T04:53:22.785Z,27.94
2022-09-16T04:55:52.954Z,27.94
2022-09-16T04:58:24.173Z,27.96
2022-09-16T05:00:53.767Z,27.98
2022-09-16T05:03:24.185Z,28.01
2022-09-16T05:05:54.322Z,28.05
2022-09-16T05:08:24.657Z,28.07
2022-09-16T05:10:55.340Z,28.10
2022-09-16T05:13:26.296Z,28.12
2022-09-16T05:15:56.834Z,28.14
2022-09-16T05:18:26.772Z,28.16
2022-09-16T05:21:01.727Z,28.18
2022-09-16T05:23:47.005Z,28.22
2022-09-16T05:26:19.474Z,28.22
2022-09-16T05:28:52.369Z,28.26
2022-09-16T05:31:30.657Z,28.29
2022-09-16T05:34:15.003Z,28.36
2022-09-16T05:36:46.059Z,28.37
2022-09-16T05:39:24.014Z,28.41
2022-09-16T05:42:00.239Z,28.45
2022-09-16T05:44:31.170Z,28.44
2022-09-16T05:47:01.220Z,28.48
2022-09-16T05:49:31.431Z,28.52
2022-09-16T05:52:01.496Z,28.59
2022-09-16T05:54:30.953Z,28.63
2022-09-16T05:57:06.025Z,28.66
2022-09-16T05:59:37.151Z,28.70
2022-09-16T06:02:07.318Z,28.72
2022-09-16T06:04:38.502Z,28.76
2022-09-16T06:07:08.662Z,28.79
2022-09-16T06:09:38.819Z,28.79
2022-09-16T06:12:08.987Z,28.85
2022-09-16T06:14:38.946Z,28.88
2022-09-16T06:17:08.942Z,28.89
2022-09-16T06:19:38.403Z,28.94
2022-09-16T06:22:08.657Z,28.95
2022-09-16T06:24:39.623Z,28.96
2022-09-16T06:27:11.000Z,29.00
2022-09-16T06:29:40.990Z,29.03
2022-09-16T06:32:11.566Z,29.06
2022-09-16T06:34:41.708Z,29.10
2022-09-16T06:37:14.690Z,29.13
2022-09-16T06:39:45.015Z,29.16
2022-09-16T06:42:15.991Z,29.21
2022-09-16T06:44:47.057Z,29.26
2022-09-16T06:47:17.225Z,29.29
2022-09-16T06:49:48.107Z,29.32
2022-09-16T06:52:17.697Z,29.34
2022-09-16T06:54:49.264Z,29.36
2022-09-16T06:57:24.424Z,29.39
2022-09-16T06:59:55.076Z,29.40
2022-09-16T07:02:25.999Z,29.45
2022-09-16T07:04:57.238Z,29.46
2022-09-16T07:07:28.290Z,29.50
2022-09-16T07:09:59.001Z,29.52
2022-09-16T07:12:31.127Z,29.56
2022-09-16T07:15:01.623Z,29.58
2022-09-16T07:17:31.641Z,29.59
2022-09-16T07:20:01.799Z,29.63
2022-09-16T07:22:33.889Z,29.67
2022-09-16T07:25:04.305Z,29.66
2022-09-16T07:27:35.004Z,29.72
2022-09-16T07:30:08.952Z,29.72
2022-09-16T07:32:41.050Z,29.76
2022-09-16T07:35:11.375Z,29.80
2022-09-16T07:37:42.789Z,29.81
2022-09-16T07:40:15.679Z,29.90
2022-09-16T07:42:46.993Z,29.94
2022-09-16T07:45:17.723Z,29.96
2022-09-16T07:47:51.743Z,30.02
2022-09-16T07:50:21.274Z,30.10
2022-09-16T07:52:55.591Z,30.11
2022-09-16T07:55:25.551Z,30.13
2022-09-16T07:57:56.108Z,30.16
2022-09-16T08:00:28.785Z,30.18
2022-09-16T08:02:59.642Z,30.18
2022-09-16T08:05:29.972Z,30.17
2022-09-16T08:07:59.900Z,30.18
2022-09-16T08:10:32.334Z,30.20
2022-09-16T08:13:03.254Z,30.21
2022-09-16T08:15:33.786Z,30.20
2022-09-16T08:18:04.272Z,30.19
2022-09-16T08:20:34.817Z,30.19
2022-09-16T08:23:04.957Z,30.19
2022-09-16T08:25:35.693Z,30.21
2022-09-16T08:28:06.558Z,30.18
2022-09-16T08:30:37.420Z,30.16
2022-09-16T08:33:07.720Z,30.14
2022-09-16T08:35:38.513Z,30.13
2022-09-16T08:38:08.864Z,30.12
2022-09-16T08:40:39.615Z,30.09
2022-09-16T08:43:22.617Z,30.09
2022-09-16T08:46:11.429Z,30.04
2022-09-16T08:49:29.161Z,29.99
2022-09-16T08:52:01.990Z,29.94
2022-09-16T08:54:42.455Z,29.89
2022-09-16T08:57:28.023Z,29.83
2022-09-16T09:00:15.955Z,29.79
2022-09-16T09:03:09.002Z,29.76
2022-09-16T09:05:52.267Z,29.70
2022-09-16T09:08:40.627Z,29.64
2022-09-16T09:11:42.074Z,29.58
2022-09-16T09:14:26.225Z,29.52
2022-09-16T09:17:22.772Z,29.47
2022-09-16T09:20:09.737Z,29.41
2022-09-16T09:23:01.038Z,29.34
2022-09-16T09:25:49.158Z,29.28
2022-09-16T09:28:43.766Z,29.23
2022-09-16T09:31:19.037Z,29.17
2022-09-16T09:34:18.175Z,29.13
2022-09-16T09:37:21.115Z,29.07
2022-09-16T09:40:28.537Z,29.00
2022-09-16T09:43:22.548Z,28.93
2022-09-16T09:46:09.174Z,28.87
2022-09-16T09:48:53.665Z,28.79
2022-09-16T09:51:23.583Z,28.72
2022-09-16T09:53:59.461Z,28.66
2022-09-16T09:56:46.516Z,28.60
2022-09-16T09:59:32.587Z,28.52
2022-09-16T10:02:04.509Z,28.47
2022-09-16T10:04:41.234Z,28.39
2022-09-16T10:07:15.234Z,28.32
2022-09-16T10:10:02.909Z,28.28
2022-09-16T10:12:36.337Z,28.23
2022-09-16T10:15:07.813Z,28.17
2022-09-16T10:17:38.168Z,28.12
2022-09-16T10:20:27.472Z,28.06
2022-09-16T10:23:08.787Z,28.04
2022-09-16T10:25:39.520Z,27.97
2022-09-16T10:28:25.693Z,27.95
2022-09-16T10:31:01.309Z,27.92
2022-09-16T10:33:36.356Z,27.86
2022-09-16T10:36:13.006Z,27.81
2022-09-16T10:38:46.342Z,27.78
2022-09-16T10:41:29.608Z,27.74
2022-09-16T10:44:02.501Z,27.67
2022-09-16T10:46:33.653Z,27.60
2022-09-16T10:49:12.704Z,27.56
2022-09-16T10:51:43.127Z,27.49
2022-09-16T10:54:24.769Z,27.48
2022-09-16T10:56:55.118Z,27.44
2022-09-16T10:59:25.894Z,27.40
2022-09-16T11:02:31.053Z,27.38
2022-09-16T11:05:42.453Z,27.34
2022-09-16T11:08:31.073Z,27.27
2022-09-16T11:11:11.881Z,27.24
2022-09-16T11:13:57.119Z,27.24
2022-09-16T11:16:54.519Z,27.20
2022-09-16T11:19:38.214Z,27.16
2022-09-16T11:22:32.037Z,27.14
2022-09-16T11:25:11.488Z,27.11
2022-09-16T11:28:03.851Z,27.06
2022-09-16T11:30:42.233Z,27.02
2022-09-16T11:33:38.909Z,26.97
2022-09-16T11:36:15.095Z,26.94
2022-09-16T11:38:55.366Z,26.90
2022-09-16T11:41:38.659Z,26.86
2022-09-16T11:44:41.629Z,26.82
2022-09-16T11:47:23.704Z,26.81
2022-09-16T11:50:06.229Z,26.78
2022-09-16T11:52:51.914Z,26.76
2022-09-16T11:55:53.881Z,26.72
2022-09-16T11:58:32.960Z,26.68
2022-09-16T12:01:26.395Z,26.66
2022-09-16T12:04:15.636Z,26.64
2022-09-16T12:07:03.293Z,26.62
2022-09-16T12:09:42.473Z,26.59
2022-09-16T12:12:23.296Z,26.56
2022-09-16T12:15:05.853Z,26.53
2022-09-16T12:17:41.068Z,26.52
2022-09-16T12:20:17.442Z,26.50
2022-09-16T12:22:54.199Z,26.48
2022-09-16T12:25:33.217Z,26.48
2022-09-16T12:28:23.670Z,26.47
2022-09-16T12:31:42.439Z,26.44
2022-09-16T12:34:35.776Z,26.42
2022-09-16T12:37:27.357Z,26.40
2022-09-16T12:39:57.978Z,26.36
2022-09-16T12:42:46.805Z,26.32
2022-09-16T12:45:53.589Z,26.31
2022-09-16T12:48:43.296Z,26.26
2022-09-16T12:51:39.529Z,26.25
2022-09-16T12:54:12.913Z,26.28
2022-09-16T12:57:01.530Z,26.27
2022-09-16T12:59:42.290Z,26.25
2022-09-16T13:02:25.878Z,26.22
2022-09-16T13:05:02.525Z,26.16
2022-09-16T13:07:38.702Z,26.14
2022-09-16T13:10:54.587Z,26.12
2022-09-16T13:13:50.418Z,26.10
2022-09-16T13:16:39.110Z,26.06
2022-09-16T13:19:28.848Z,26.03
2022-09-16T13:22:16.858Z,26.00
2022-09-16T13:25:24.491Z,25.96
2022-09-16T13:28:04.206Z,25.94
2022-09-16T13:30:40.292Z,25.89
2022-09-16T13:33:13.866Z,25.86
2022-09-16T13:35:51.112Z,25.83
2022-09-16T13:38:21.588Z,25.82
2022-09-16T13:41:03.573Z,25.78
2022-09-16T13:43:44.547Z,25.77
2022-09-16T13:46:29.358Z,25.71
2022-09-16T13:49:15.628Z,25.69
2022-09-16T13:51:49.465Z,25.66
2022-09-16T13:54:53.502Z,25.63
2022-09-16T13:57:57.368Z,25.59
2022-09-16T14:00:39.316Z,25.56
2022-09-16T14:03:36.611Z,25.54
2022-09-16T14:06:37.217Z,25.52
2022-09-16T14:09:45.985Z,25.51
2022-09-16T14:12:38.179Z,25.46
2022-09-16T14:15:10.026Z,25.42
2022-09-16T14:17:53.796Z,25.38
2022-09-16T14:20:28.189Z,25.36
2022-09-16T14:23:21.307Z,25.32
2022-09-16T14:25:55.306Z,25.29
2022-09-16T14:28:31.277Z,25.26
2022-09-16T14:31:08.217Z,25.23
2022-09-16T14:33:44.370Z,25.21
2022-09-16T14:36:25.913Z,25.19
2022-09-16T14:39:12.417Z,25.17
2022-09-16T14:41:49.529Z,25.16
2022-09-16T14:44:24.202Z,25.12
2022-09-16T14:47:08.783Z,25.09
2022-09-16T14:49:45.135Z,25.05
2022-09-16T14:52:24.583Z,25.02
2022-09-16T14:54:55.413Z,24.95
2022-09-16T14:57:34.783Z,24.94
2022-09-16T15:00:14.842Z,24.92
2022-09-16T15:02:52.535Z,24.90
2022-09-16T15:05:29.209Z,24.87
2022-09-16T15:08:40.177Z,24.86
2022-09-16T15:11:29.916Z,24.84
2022-09-16T15:14:10.883Z,24.80
2022-09-16T15:16:55.962Z,24.79
2022-09-16T15:19:40.052Z,24.78
2022-09-16T15:22:19.799Z,24.75
2022-09-16T15:24:54.869Z,24.74
2022-09-16T15:27:29.753Z,24.73
2022-09-16T15:30:06.828Z,24.71
2022-09-16T15:32:47.934Z,24.70
2022-09-16T15:35:24.988Z,24.69
2022-09-16T15:37:57.019Z,24.67
2022-09-16T15:40:28.245Z,24.69
2022-09-16T15:43:19.907Z,24.69
2022-09-16T15:46:25.643Z,24.66
2022-09-16T15:49:04.255Z,24.66
2022-09-16T15:51:51.408Z,24.62
2022-09-16T15:54:34.000Z,24.62
2022-09-16T15:57:13.414Z,24.58
2022-09-16T15:59:56.319Z,24.55
2022-09-16T16:02:41.488Z,24.52
2022-09-16T16:05:24.088Z,24.50
2022-09-16T16:08:12.682Z,24.48
2022-09-16T16:10:43.322Z,24.45
2022-09-16T16:13:13.612Z,24.44
2022-09-16T16:15:44.046Z,24.43
2022-09-16T16:18:15.257Z,24.42
2022-09-16T16:20:46.975Z,24.40
2022-09-16T16:23:17.578Z,24.38
2022-09-16T16:25:50.918Z,24.35
2022-09-16T16:28:22.454Z,24.33
2022-09-16T16:30:53.203Z,24.32
2022-09-16T16:33:25.006Z,24.29
2022-09-16T16:35:55.755Z,24.25
2022-09-16T16:38:26.600Z,24.24
2022-09-16T16:40:56.937Z,24.24
2022-09-16T16:43:27.490Z,24.21
2022-09-16T16:46:01.342Z,24.22
2022-09-16T16:48:32.173Z,24.21
2022-09-16T16:51:06.244Z,24.19
2022-09-16T16:53:37.056Z,24.20
2022-09-16T16:56:16.054Z,24.21
2022-09-16T16:58:46.390Z,24.18
2022-09-16T17:01:19.519Z,24.14
2022-09-16T17:03:54.338Z,24.13
2022-09-16T17:06:24.523Z,24.12
2022-09-16T17:08:54.860Z,24.11
2022-09-16T17:11:25.420Z,24.11
2022-09-16T17:14:09.031Z,24.10
2022-09-16T17:16:39.427Z,24.08
2022-09-16T17:19:09.662Z,24.07
2022-09-16T17:21:40.957Z,24.06
2022-09-16T17:24:11.141Z,24.04
2022-09-16T17:26:41.888Z,24.01
2022-09-16T17:29:15.906Z,23.98
2022-09-16T17:31:46.897Z,23.97
2022-09-16T17:34:17.853Z,23.97
2022-09-16T17:36:49.373Z,23.95
2022-09-16T17:39:22.868Z,23.94
2022-09-16T17:41:53.515Z,23.93
2022-09-16T17:44:23.510Z,23.91
2022-09-16T17:46:53.465Z,23.89
2022-09-16T17:49:26.046Z,23.88
2022-09-16T17:51:56.242Z,23.85
2022-09-16T17:54:26.349Z,23.83
2022-09-16T17:56:56.349Z,23.81
2022-09-16T17:59:26.851Z,23.79
2022-09-16T18:01:56.843Z,23.77
2022-09-16T18:04:26.984Z,23.75
2022-09-16T18:06:57.894Z,23.75
2022-09-16T18:09:28.009Z,23.73
2022-09-16T18:11:59.841Z,23.73
2022-09-16T18:14:30.079Z,23.72
2022-09-16T18:17:01.104Z,23.69
2022-09-16T18:19:31.481Z,23.68
2022-09-16T18:22:01.461Z,23.67
2022-09-16T18:24:31.433Z,23.67
2022-09-16T18:27:02.547Z,23.65
2022-09-16T18:29:33.486Z,23.61
2022-09-16T18:32:03.177Z,23.59
2022-09-16T18:34:33.787Z,23.54
2022-09-16T18:37:04.847Z,23.49
2022-09-16T18:39:35.604Z,23.48
2022-09-16T18:42:06.345Z,23.44
2022-09-16T18:44:36.835Z,23.43
2022-09-16T18:47:07.047Z,23.38
2022-09-16T18:49:37.526Z,23.37
2022-09-16T18:52:07.545Z,23.35
2022-09-16T18:54:37.556Z,23.33
2022-09-16T18:57:08.291Z,23.34
2022-09-16T18:59:38.808Z,23.33
2022-09-16T19:02:12.012Z,23.31
2022-09-16T19:04:44.292Z,23.29
2022-09-16T19:07:15.884Z,23.25
2022-09-16T19:09:48.015Z,23.24
2022-09-16T19:12:18.180Z,23.23
2022-09-16T19:14:48.059Z,23.21
2022-09-16T19:17:18.187Z,23.22
2022-09-16T19:19:51.964Z,23.18
2022-09-16T19:22:22.717Z,23.17
2022-09-16T19:24:55.379Z,23.14
2022-09-16T19:27:28.836Z,23.14
2022-09-16T19:29:59.775Z,23.14
2022-09-16T19:32:33.051Z,23.14
2022-09-16T19:35:03.266Z,23.11
2022-09-16T19:37:34.445Z,23.11
2022-09-16T19:40:04.609Z,23.10
2022-09-16T19:42:34.618Z,23.09
2022-09-16T19:45:05.179Z,23.08
2022-09-16T19:47:34.683Z,23.08
2022-09-16T19:50:04.710Z,23.06
2022-09-16T19:52:37.873Z,23.07
2022-09-16T19:55:09.965Z,23.06
2022-09-16T19:57:41.853Z,23.03
2022-09-16T20:00:16.232Z,23.04
2022-09-16T20:02:47.905Z,23.01
2022-09-16T20:05:18.543Z,22.99
2022-09-16T20:07:48.658Z,23.00
2022-09-16T20:10:19.430Z,23.00
2022-09-16T20:12:50.046Z,22.97
2022-09-16T20:15:23.344Z,22.95
2022-09-16T20:17:53.827Z,22.95
2022-09-16T20:20:23.808Z,22.93
2022-09-16T20:22:53.999Z,22.93
2022-09-16T20:25:24.392Z,22.92
2022-09-16T20:27:54.965Z,22.90
2022-09-16T20:30:25.478Z,22.89
2022-09-16T20:32:55.556Z,22.89
2022-09-16T20:35:25.666Z,22.85
2022-09-16T20:37:55.648Z,22.81
2022-09-16T20:40:25.723Z,22.80
2022-09-16T20:42:55.285Z,22.77
2022-09-16T20:45:25.349Z,22.72
2022-09-16T20:47:55.628Z,22.68
2022-09-16T20:50:25.617Z,22.68
2022-09-16T20:52:55.598Z,22.69
2022-09-16T20:55:25.592Z,22.69
2022-09-16T20:57:55.611Z,22.68
2022-09-16T21:00:25.644Z,22.68
2022-09-16T21:02:56.210Z,22.65
2022-09-16T21:05:26.012Z,22.62
2022-09-16T21:08:00.178Z,22.56
2022-09-16T21:10:30.080Z,22.52
2022-09-16T21:13:00.178Z,22.48
2022-09-16T21:15:30.478Z,22.46
2022-09-16T21:18:01.019Z,22.43
2022-09-16T21:20:31.146Z,22.44
2022-09-16T21:23:02.083Z,22.45
2022-09-16T21:25:33.389Z,22.46
2022-09-16T21:28:05.062Z,22.42
2022-09-16T21:30:35.231Z,22.41
2022-09-16T21:33:05.328Z,22.41
2022-09-16T21:35:35.312Z,22.41
2022-09-16T21:38:05.692Z,22.40
2022-09-16T21:40:39.118Z,22.39
2022-09-16T21:43:10.188Z,22.38
2022-09-16T21:45:46.198Z,22.39
2022-09-16T21:48:17.918Z,22.35
2022-09-16T21:50:51.590Z,22.30
2022-09-16T21:53:22.980Z,22.29
2022-09-16T21:55:53.061Z,22.26
2022-09-16T21:58:22.982Z,22.27
2022-09-16T22:00:52.892Z,22.25
2022-09-16T22:03:22.957Z,22.28
2022-09-16T22:05:52.856Z,22.26
2022-09-16T22:08:22.763Z,22.27
2022-09-16T22:10:52.999Z,22.26
2022-09-16T22:13:23.497Z,22.25
2022-09-16T22:15:54.331Z,22.24
2022-09-16T22:18:25.960Z,22.24
2022-09-16T22:20:59.008Z,22.23
2022-09-16T22:23:29.432Z,22.21
2022-09-16T22:25:59.484Z,22.21
2022-09-16T22:28:29.430Z,22.18
2022-09-16T22:31:11.510Z,22.18
2022-09-16T22:33:43.277Z,22.18
2022-09-16T22:36:21.532Z,22.18
2022-09-16T22:38:54.057Z,22.18
2022-09-16T22:41:26.449Z,22.19
2022-09-16T22:43:56.958Z,22.17
2022-09-16T22:46:31.156Z,22.19
2022-09-16T22:49:02.247Z,22.16
2022-09-16T22:51:33.701Z,22.15
2022-09-16T22:54:03.941Z,22.14
2022-09-16T22:56:35.109Z,22.19
2022-09-16T22:59:05.708Z,22.20
2022-09-16T23:01:41.629Z,22.21
2022-09-16T23:04:12.217Z,22.23
2022-09-16T23:06:44.048Z,22.26
2022-09-16T23:09:16.061Z,22.28
2022-09-16T23:11:46.961Z,22.27
2022-09-16T23:14:27.856Z,22.31
2022-09-16T23:16:59.164Z,22.31
2022-09-16T23:19:29.309Z,22.33
2022-09-16T23:21:59.247Z,22.37
2022-09-16T23:24:29.167Z,22.41
2022-09-16T23:26:59.050Z,22.45
2022-09-16T23:29:28.951Z,22.49
2022-09-16T23:31:59.169Z,22.54
2022-09-16T23:34:29.096Z,22.58
2022-09-16T23:37:00.093Z,22.64
2022-09-16T23:39:30.719Z,22.71
2022-09-16T23:42:00.775Z,22.80
2022-09-16T23:44:31.730Z,22.88
2022-09-16T23:47:01.844Z,22.94
2022-09-16T23:49:32.351Z,23.00
2022-09-16T23:52:02.415Z,23.08
2022-09-16T23:54:32.335Z,23.14
2022-09-16T23:57:02.216Z,23.20
2022-09-16T23:59:32.097Z,23.25
